sensor_id;sensor_type;location;lat;lon;timestamp;temperature;humidity
4904;DHT22;2467;48.142;11.616;2023-04-06T00:00:28;4.70;68.20
4904;DHT22;2467;48.142;11.616;2023-04-06T00:01:00;4.70;68.40
4904;DHT22;2467;48.142;11.616;2023-04-06T00:01:32;4.70;68.40
4904;DHT22;2467;48.142;11.616;2023-04-06T00:02:05;4.70;68.60
4904;DHT22;2467;48.142;11.616;2023-04-06T00:02:37;4.60;69.30
4904;DHT22;2467;48.142;11.616;2023-04-06T00:03:09;4.60;68.70
4904;DHT22;2467;48.142;11.616;2023-04-06T00:03:42;4.60;69.00
4904;DHT22;2467;48.142;11.616;2023-04-06T00:04:14;4.60;69.20
4904;DHT22;2467;48.142;11.616;2023-04-06T00:04:46;4.60;69.40
4904;DHT22;2467;48.142;11.616;2023-04-06T00:05:18;4.60;69.80
4904;DHT22;2467;48.142;11.616;2023-04-06T00:05:53;4.50;70.00
4904;DHT22;2467;48.142;11.616;2023-04-06T00:06:25;4.50;70.40
4904;DHT22;2467;48.142;11.616;2023-04-06T00:06:57;4.50;70.60
4904;DHT22;2467;48.142;11.616;2023-04-06T00:07:30;4.40;70.70
4904;DHT22;2467;48.142;11.616;2023-04-06T00:08:02;4.40;70.70
4904;DHT22;2467;48.142;11.616;2023-04-06T00:08:34;4.40;70.80
4904;DHT22;2467;48.142;11.616;2023-04-06T00:09:06;4.30;70.90
4904;DHT22;2467;48.142;11.616;2023-04-06T00:09:39;4.30;71.10
4904;DHT22;2467;48.142;11.616;2023-04-06T00:10:11;4.30;71.30
4904;DHT22;2467;48.142;11.616;2023-04-06T00:10:43;4.30;71.40
4904;DHT22;2467;48.142;11.616;2023-04-06T00:11:16;4.20;71.50
4904;DHT22;2467;48.142;11.616;2023-04-06T00:11:48;4.20;71.80
4904;DHT22;2467;48.142;11.616;2023-04-06T00:12:20;4.30;72.10
4904;DHT22;2467;48.142;11.616;2023-04-06T00:12:53;4.30;72.30
4904;DHT22;2467;48.142;11.616;2023-04-06T00:13:28;4.30;72.30
4904;DHT22;2467;48.142;11.616;2023-04-06T00:14:00;4.30;72.30
4904;DHT22;2467;48.142;11.616;2023-04-06T00:14:33;4.30;72.40
4904;DHT22;2467;48.142;11.616;2023-04-06T00:15:06;4.30;72.50
4904;DHT22;2467;48.142;11.616;2023-04-06T00:15:38;4.40;72.60
4904;DHT22;2467;48.142;11.616;2023-04-06T00:16:11;4.40;72.60
4904;DHT22;2467;48.142;11.616;2023-04-06T00:16:43;4.40;72.60
4904;DHT22;2467;48.142;11.616;2023-04-06T00:17:15;4.40;72.60
4904;DHT22;2467;48.142;11.616;2023-04-06T00:17:48;4.40;72.60
4904;DHT22;2467;48.142;11.616;2023-04-06T00:18:20;4.40;72.60
4904;DHT22;2467;48.142;11.616;2023-04-06T00:18:52;4.40;72.60
4904;DHT22;2467;48.142;11.616;2023-04-06T00:19:25;4.50;72.70
4904;DHT22;2467;48.142;11.616;2023-04-06T00:19:57;4.50;72.70
4904;DHT22;2467;48.142;11.616;2023-04-06T00:20:29;4.50;72.80
4904;DHT22;2467;48.142;11.616;2023-04-06T00:21:03;4.50;72.80
4904;DHT22;2467;48.142;11.616;2023-04-06T00:21:35;4.50;72.90
4904;DHT22;2467;48.142;11.616;2023-04-06T00:22:08;4.50;73.10
4904;DHT22;2467;48.142;11.616;2023-04-06T00:22:40;4.50;73.10
4904;DHT22;2467;48.142;11.616;2023-04-06T00:23:13;4.50;73.10
4904;DHT22;2467;48.142;11.616;2023-04-06T00:23:44;4.40;73.20
4904;DHT22;2467;48.142;11.616;2023-04-06T00:24:16;4.40;73.40
4904;DHT22;2467;48.142;11.616;2023-04-06T00:24:49;4.30;73.50
4904;DHT22;2467;48.142;11.616;2023-04-06T00:25:21;4.40;73.90
4904;DHT22;2467;48.142;11.616;2023-04-06T00:25:53;4.30;74.00
4904;DHT22;2467;48.142;11.616;2023-04-06T00:26:27;4.30;74.20
4904;DHT22;2467;48.142;11.616;2023-04-06T00:26:59;4.30;74.50
4904;DHT22;2467;48.142;11.616;2023-04-06T00:27:31;4.30;74.90
4904;DHT22;2467;48.142;11.616;2023-04-06T00:28:04;4.20;75.20
4904;DHT22;2467;48.142;11.616;2023-04-06T00:28:36;4.20;75.40
4904;DHT22;2467;48.142;11.616;2023-04-06T00:29:08;4.20;75.60
4904;DHT22;2467;48.142;11.616;2023-04-06T00:29:40;4.20;75.70
4904;DHT22;2467;48.142;11.616;2023-04-06T00:30:13;4.20;75.90
4904;DHT22;2467;48.142;11.616;2023-04-06T00:30:46;4.20;75.90
4904;DHT22;2467;48.142;11.616;2023-04-06T00:31:17;4.30;75.90
4904;DHT22;2467;48.142;11.616;2023-04-06T00:31:51;4.30;75.90
4904;DHT22;2467;48.142;11.616;2023-04-06T00:32:22;4.40;75.80
4904;DHT22;2467;48.142;11.616;2023-04-06T00:32:54;4.30;75.60
4904;DHT22;2467;48.142;11.616;2023-04-06T00:33:28;4.40;75.60
4904;DHT22;2467;48.142;11.616;2023-04-06T00:33:59;4.40;75.50
4904;DHT22;2467;48.142;11.616;2023-04-06T00:34:31;4.40;75.40
4904;DHT22;2467;48.142;11.616;2023-04-06T00:35:04;4.40;75.30
4904;DHT22;2467;48.142;11.616;2023-04-06T00:35:37;4.40;75.30
4904;DHT22;2467;48.142;11.616;2023-04-06T00:36:11;4.40;75.20
4904;DHT22;2467;48.142;11.616;2023-04-06T00:36:43;4.40;75.20
4904;DHT22;2467;48.142;11.616;2023-04-06T00:37:15;4.50;75.10
4904;DHT22;2467;48.142;11.616;2023-04-06T00:37:48;4.50;75.00
4904;DHT22;2467;48.142;11.616;2023-04-06T00:38:20;4.50;74.90
4904;DHT22;2467;48.142;11.616;2023-04-06T00:38:53;4.50;74.80
4904;DHT22;2467;48.142;11.616;2023-04-06T00:39:26;4.50;74.60
4904;DHT22;2467;48.142;11.616;2023-04-06T00:39:58;4.50;74.50
4904;DHT22;2467;48.142;11.616;2023-04-06T00:40:31;4.50;74.40
4904;DHT22;2467;48.142;11.616;2023-04-06T00:41:04;4.50;74.30
4904;DHT22;2467;48.142;11.616;2023-04-06T00:41:36;4.50;74.20
4904;DHT22;2467;48.142;11.616;2023-04-06T00:42:11;4.50;74.20
4904;DHT22;2467;48.142;11.616;2023-04-06T00:42:45;4.50;74.10
4904;DHT22;2467;48.142;11.616;2023-04-06T00:43:17;4.40;74.20
4904;DHT22;2467;48.142;11.616;2023-04-06T00:43:48;4.40;74.30
4904;DHT22;2467;48.142;11.616;2023-04-06T00:44:21;4.30;74.50
4904;DHT22;2467;48.142;11.616;2023-04-06T00:44:56;4.30;74.80
4904;DHT22;2467;48.142;11.616;2023-04-06T00:45:28;4.20;75.00
4904;DHT22;2467;48.142;11.616;2023-04-06T00:46:01;4.20;75.30
4904;DHT22;2467;48.142;11.616;2023-04-06T00:46:34;4.20;75.60
4904;DHT22;2467;48.142;11.616;2023-04-06T00:47:06;4.30;75.80
4904;DHT22;2467;48.142;11.616;2023-04-06T00:47:39;4.30;75.80
4904;DHT22;2467;48.142;11.616;2023-04-06T00:48:11;4.30;75.90
4904;DHT22;2467;48.142;11.616;2023-04-06T00:48:43;4.10;75.70
4904;DHT22;2467;48.142;11.616;2023-04-06T00:49:16;4.20;75.90
4904;DHT22;2467;48.142;11.616;2023-04-06T00:49:49;4.20;76.00
4904;DHT22;2467;48.142;11.616;2023-04-06T00:50:20;4.20;76.20
4904;DHT22;2467;48.142;11.616;2023-04-06T00:50:53;4.20;76.20
4904;DHT22;2467;48.142;11.616;2023-04-06T00:51:27;4.20;76.30
4904;DHT22;2467;48.142;11.616;2023-04-06T00:51:59;4.20;77.20
4904;DHT22;2467;48.142;11.616;2023-04-06T00:52:31;4.10;76.90
4904;DHT22;2467;48.142;11.616;2023-04-06T00:53:04;4.10;77.20
4904;DHT22;2467;48.142;11.616;2023-04-06T00:53:36;4.10;77.60
4904;DHT22;2467;48.142;11.616;2023-04-06T00:54:08;4.10;78.00
4904;DHT22;2467;48.142;11.616;2023-04-06T00:54:40;4.10;78.30
4904;DHT22;2467;48.142;11.616;2023-04-06T00:55:13;4.20;78.50
4904;DHT22;2467;48.142;11.616;2023-04-06T00:55:45;4.10;78.20
4904;DHT22;2467;48.142;11.616;2023-04-06T00:56:17;4.10;77.90
4904;DHT22;2467;48.142;11.616;2023-04-06T00:56:49;4.10;77.60
4904;DHT22;2467;48.142;11.616;2023-04-06T00:57:21;4.00;77.30
4904;DHT22;2467;48.142;11.616;2023-04-06T00:57:53;4.00;77.20
4904;DHT22;2467;48.142;11.616;2023-04-06T00:58:26;4.00;77.20
4904;DHT22;2467;48.142;11.616;2023-04-06T00:58:59;4.00;77.70
4904;DHT22;2467;48.142;11.616;2023-04-06T00:59:31;4.00;77.10
4904;DHT22;2467;48.142;11.616;2023-04-06T01:00:04;3.90;77.20
4904;DHT22;2467;48.142;11.616;2023-04-06T01:00:38;3.90;77.40
4904;DHT22;2467;48.142;11.616;2023-04-06T01:01:10;3.90;77.50
4904;DHT22;2467;48.142;11.616;2023-04-06T01:01:42;3.90;77.60
4904;DHT22;2467;48.142;11.616;2023-04-06T01:02:15;3.90;77.60
4904;DHT22;2467;48.142;11.616;2023-04-06T01:02:46;3.90;77.40
4904;DHT22;2467;48.142;11.616;2023-04-06T01:03:19;3.90;77.50
4904;DHT22;2467;48.142;11.616;2023-04-06T01:03:52;3.90;77.50
4904;DHT22;2467;48.142;11.616;2023-04-06T01:04:25;3.90;77.40
4904;DHT22;2467;48.142;11.616;2023-04-06T01:04:58;3.90;77.40
4904;DHT22;2467;48.142;11.616;2023-04-06T01:05:33;4.00;77.30
4904;DHT22;2467;48.142;11.616;2023-04-06T01:06:05;3.90;77.10
4904;DHT22;2467;48.142;11.616;2023-04-06T01:06:38;3.90;77.00
4904;DHT22;2467;48.142;11.616;2023-04-06T01:07:11;3.90;77.10
4904;DHT22;2467;48.142;11.616;2023-04-06T01:07:43;3.90;77.30
4904;DHT22;2467;48.142;11.616;2023-04-06T01:08:15;3.90;77.40
4904;DHT22;2467;48.142;11.616;2023-04-06T01:08:47;3.90;77.60
4904;DHT22;2467;48.142;11.616;2023-04-06T01:09:21;3.90;77.40
4904;DHT22;2467;48.142;11.616;2023-04-06T01:09:53;3.90;77.10
4904;DHT22;2467;48.142;11.616;2023-04-06T01:10:26;4.00;77.00
4904;DHT22;2467;48.142;11.616;2023-04-06T01:10:59;3.90;76.90
4904;DHT22;2467;48.142;11.616;2023-04-06T01:11:32;3.90;77.00
4904;DHT22;2467;48.142;11.616;2023-04-06T01:12:04;4.00;77.30
4904;DHT22;2467;48.142;11.616;2023-04-06T01:12:37;3.90;77.40
4904;DHT22;2467;48.142;11.616;2023-04-06T01:13:10;3.90;77.40
4904;DHT22;2467;48.142;11.616;2023-04-06T01:13:42;3.90;77.40
4904;DHT22;2467;48.142;11.616;2023-04-06T01:14:14;3.90;77.40
4904;DHT22;2467;48.142;11.616;2023-04-06T01:14:47;3.90;77.30
4904;DHT22;2467;48.142;11.616;2023-04-06T01:15:19;3.90;77.90
4904;DHT22;2467;48.142;11.616;2023-04-06T01:15:52;4.00;77.30
4904;DHT22;2467;48.142;11.616;2023-04-06T01:16:25;4.00;77.30
4904;DHT22;2467;48.142;11.616;2023-04-06T01:16:58;4.00;77.20
4904;DHT22;2467;48.142;11.616;2023-04-06T01:17:31;4.00;77.20
4904;DHT22;2467;48.142;11.616;2023-04-06T01:18:04;4.00;77.20
4904;DHT22;2467;48.142;11.616;2023-04-06T01:18:38;4.10;77.50
4904;DHT22;2467;48.142;11.616;2023-04-06T01:19:11;4.00;77.40
4904;DHT22;2467;48.142;11.616;2023-04-06T01:19:44;4.00;77.40
4904;DHT22;2467;48.142;11.616;2023-04-06T01:20:16;4.00;77.30
4904;DHT22;2467;48.142;11.616;2023-04-06T01:20:48;3.90;77.10
4904;DHT22;2467;48.142;11.616;2023-04-06T01:21:22;3.90;77.10
4904;DHT22;2467;48.142;11.616;2023-04-06T01:21:55;4.00;77.20
4904;DHT22;2467;48.142;11.616;2023-04-06T01:22:28;4.00;77.20
4904;DHT22;2467;48.142;11.616;2023-04-06T01:23:01;4.00;77.10
4904;DHT22;2467;48.142;11.616;2023-04-06T01:23:33;4.00;77.10
4904;DHT22;2467;48.142;11.616;2023-04-06T01:24:06;4.10;77.10
4904;DHT22;2467;48.142;11.616;2023-04-06T01:24:40;3.90;76.90
4904;DHT22;2467;48.142;11.616;2023-04-06T01:25:11;3.90;77.00
4904;DHT22;2467;48.142;11.616;2023-04-06T01:25:43;3.90;77.00
4904;DHT22;2467;48.142;11.616;2023-04-06T01:26:16;3.90;76.90
4904;DHT22;2467;48.142;11.616;2023-04-06T01:26:48;3.90;77.00
4904;DHT22;2467;48.142;11.616;2023-04-06T01:27:20;3.90;77.10
4904;DHT22;2467;48.142;11.616;2023-04-06T01:27:53;3.90;77.30
4904;DHT22;2467;48.142;11.616;2023-04-06T01:28:25;4.00;77.50
4904;DHT22;2467;48.142;11.616;2023-04-06T01:28:57;3.90;77.40
4904;DHT22;2467;48.142;11.616;2023-04-06T01:29:29;3.90;77.40
4904;DHT22;2467;48.142;11.616;2023-04-06T01:30:02;4.00;77.30
4904;DHT22;2467;48.142;11.616;2023-04-06T01:30:35;4.00;77.10
4904;DHT22;2467;48.142;11.616;2023-04-06T01:31:08;4.00;76.80
4904;DHT22;2467;48.142;11.616;2023-04-06T01:31:41;4.00;76.60
4904;DHT22;2467;48.142;11.616;2023-04-06T01:32:13;4.00;76.30
4904;DHT22;2467;48.142;11.616;2023-04-06T01:32:45;4.00;76.10
4904;DHT22;2467;48.142;11.616;2023-04-06T01:33:17;4.00;76.10
4904;DHT22;2467;48.142;11.616;2023-04-06T01:33:50;4.00;76.10
4904;DHT22;2467;48.142;11.616;2023-04-06T01:34:22;4.00;76.00
4904;DHT22;2467;48.142;11.616;2023-04-06T01:34:54;4.00;75.90
4904;DHT22;2467;48.142;11.616;2023-04-06T01:35:27;4.00;75.70
4904;DHT22;2467;48.142;11.616;2023-04-06T01:35:59;4.00;75.60
4904;DHT22;2467;48.142;11.616;2023-04-06T01:36:32;4.00;75.20
4904;DHT22;2467;48.142;11.616;2023-04-06T01:37:04;4.00;74.80
4904;DHT22;2467;48.142;11.616;2023-04-06T01:37:38;4.00;74.70
4904;DHT22;2467;48.142;11.616;2023-04-06T01:38:10;4.00;74.50
4904;DHT22;2467;48.142;11.616;2023-04-06T01:38:42;4.00;74.10
4904;DHT22;2467;48.142;11.616;2023-04-06T01:39:14;4.00;73.90
4904;DHT22;2467;48.142;11.616;2023-04-06T01:39:46;4.00;73.70
4904;DHT22;2467;48.142;11.616;2023-04-06T01:40:18;4.00;73.50
4904;DHT22;2467;48.142;11.616;2023-04-06T01:40:52;4.00;73.40
4904;DHT22;2467;48.142;11.616;2023-04-06T01:41:24;4.10;73.10
4904;DHT22;2467;48.142;11.616;2023-04-06T01:41:56;4.10;72.80
4904;DHT22;2467;48.142;11.616;2023-04-06T01:42:29;4.10;72.60
4904;DHT22;2467;48.142;11.616;2023-04-06T01:43:02;4.00;72.30
4904;DHT22;2467;48.142;11.616;2023-04-06T01:43:34;4.00;72.10
4904;DHT22;2467;48.142;11.616;2023-04-06T01:44:07;4.00;72.10
4904;DHT22;2467;48.142;11.616;2023-04-06T01:44:38;4.00;72.70
4904;DHT22;2467;48.142;11.616;2023-04-06T01:45:11;4.00;71.90
4904;DHT22;2467;48.142;11.616;2023-04-06T01:45:42;4.00;71.90
4904;DHT22;2467;48.142;11.616;2023-04-06T01:46:16;4.00;71.90
4904;DHT22;2467;48.142;11.616;2023-04-06T01:46:48;4.00;72.00
4904;DHT22;2467;48.142;11.616;2023-04-06T01:47:19;4.00;72.00
4904;DHT22;2467;48.142;11.616;2023-04-06T01:47:51;4.10;72.10
4904;DHT22;2467;48.142;11.616;2023-04-06T01:48:25;4.00;72.10
4904;DHT22;2467;48.142;11.616;2023-04-06T01:48:57;4.10;72.20
4904;DHT22;2467;48.142;11.616;2023-04-06T01:49:29;4.10;72.10
4904;DHT22;2467;48.142;11.616;2023-04-06T01:50:02;4.10;71.70
4904;DHT22;2467;48.142;11.616;2023-04-06T01:50:36;4.10;71.60
4904;DHT22;2467;48.142;11.616;2023-04-06T01:51:08;4.10;72.10
4904;DHT22;2467;48.142;11.616;2023-04-06T01:51:40;4.10;71.40
4904;DHT22;2467;48.142;11.616;2023-04-06T01:52:13;4.10;71.30
4904;DHT22;2467;48.142;11.616;2023-04-06T01:52:47;4.10;71.30
4904;DHT22;2467;48.142;11.616;2023-04-06T01:53:18;4.10;71.20
4904;DHT22;2467;48.142;11.616;2023-04-06T01:53:50;4.10;71.20
4904;DHT22;2467;48.142;11.616;2023-04-06T01:54:23;4.10;71.30
4904;DHT22;2467;48.142;11.616;2023-04-06T01:54:55;4.00;71.20
4904;DHT22;2467;48.142;11.616;2023-04-06T01:55:27;4.00;71.30
4904;DHT22;2467;48.142;11.616;2023-04-06T01:55:59;4.00;71.40
4904;DHT22;2467;48.142;11.616;2023-04-06T01:56:32;4.00;71.50
4904;DHT22;2467;48.142;11.616;2023-04-06T01:57:04;4.00;71.60
4904;DHT22;2467;48.142;11.616;2023-04-06T01:57:36;4.00;71.80
4904;DHT22;2467;48.142;11.616;2023-04-06T01:58:09;4.00;72.00
4904;DHT22;2467;48.142;11.616;2023-04-06T01:58:41;4.00;72.00
4904;DHT22;2467;48.142;11.616;2023-04-06T01:59:13;4.00;72.70
4904;DHT22;2467;48.142;11.616;2023-04-06T01:59:46;4.00;72.10
4904;DHT22;2467;48.142;11.616;2023-04-06T02:00:18;4.00;72.10
4904;DHT22;2467;48.142;11.616;2023-04-06T02:00:50;4.00;72.30
4904;DHT22;2467;48.142;11.616;2023-04-06T02:01:23;4.00;72.40
4904;DHT22;2467;48.142;11.616;2023-04-06T02:01:56;3.90;72.50
4904;DHT22;2467;48.142;11.616;2023-04-06T02:02:28;4.00;72.80
4904;DHT22;2467;48.142;11.616;2023-04-06T02:03:01;4.00;72.70
4904;DHT22;2467;48.142;11.616;2023-04-06T02:03:33;4.00;72.60
4904;DHT22;2467;48.142;11.616;2023-04-06T02:04:05;4.00;72.50
4904;DHT22;2467;48.142;11.616;2023-04-06T02:04:38;3.90;72.30
4904;DHT22;2467;48.142;11.616;2023-04-06T02:05:10;3.90;72.30
4904;DHT22;2467;48.142;11.616;2023-04-06T02:05:42;3.90;72.40
4904;DHT22;2467;48.142;11.616;2023-04-06T02:06:14;3.90;72.50
4904;DHT22;2467;48.142;11.616;2023-04-06T02:06:46;3.90;72.50
4904;DHT22;2467;48.142;11.616;2023-04-06T02:07:18;3.90;72.50
4904;DHT22;2467;48.142;11.616;2023-04-06T02:07:52;3.90;72.50
4904;DHT22;2467;48.142;11.616;2023-04-06T02:08:24;4.00;72.60
4904;DHT22;2467;48.142;11.616;2023-04-06T02:08:56;3.90;72.30
4904;DHT22;2467;48.142;11.616;2023-04-06T02:09:28;3.90;72.30
4904;DHT22;2467;48.142;11.616;2023-04-06T02:10:01;3.90;72.20
4904;DHT22;2467;48.142;11.616;2023-04-06T02:10:34;3.90;72.20
4904;DHT22;2467;48.142;11.616;2023-04-06T02:11:06;3.90;72.10
4904;DHT22;2467;48.142;11.616;2023-04-06T02:11:38;4.00;72.20
4904;DHT22;2467;48.142;11.616;2023-04-06T02:12:11;4.00;72.10
4904;DHT22;2467;48.142;11.616;2023-04-06T02:12:43;4.00;72.10
4904;DHT22;2467;48.142;11.616;2023-04-06T02:13:15;4.00;72.00
4904;DHT22;2467;48.142;11.616;2023-04-06T02:13:48;4.00;72.10
4904;DHT22;2467;48.142;11.616;2023-04-06T02:14:20;4.00;72.00
4904;DHT22;2467;48.142;11.616;2023-04-06T02:14:52;4.00;72.00
4904;DHT22;2467;48.142;11.616;2023-04-06T02:15:25;4.00;72.00
4904;DHT22;2467;48.142;11.616;2023-04-06T02:15:57;4.00;71.90
4904;DHT22;2467;48.142;11.616;2023-04-06T02:16:29;4.00;71.90
4904;DHT22;2467;48.142;11.616;2023-04-06T02:17:02;4.00;71.90
4904;DHT22;2467;48.142;11.616;2023-04-06T02:17:34;4.00;72.00
4904;DHT22;2467;48.142;11.616;2023-04-06T02:18:06;4.00;72.00
4904;DHT22;2467;48.142;11.616;2023-04-06T02:18:39;4.00;72.00
4904;DHT22;2467;48.142;11.616;2023-04-06T02:19:11;4.00;72.10
4904;DHT22;2467;48.142;11.616;2023-04-06T02:19:43;3.90;72.00
4904;DHT22;2467;48.142;11.616;2023-04-06T02:20:16;4.00;72.10
4904;DHT22;2467;48.142;11.616;2023-04-06T02:20:48;4.00;72.00
4904;DHT22;2467;48.142;11.616;2023-04-06T02:21:20;3.90;71.90
4904;DHT22;2467;48.142;11.616;2023-04-06T02:21:52;3.90;72.00
4904;DHT22;2467;48.142;11.616;2023-04-06T02:22:24;4.00;72.20
4904;DHT22;2467;48.142;11.616;2023-04-06T02:22:59;4.00;72.20
4904;DHT22;2467;48.142;11.616;2023-04-06T02:23:32;4.00;72.20
4904;DHT22;2467;48.142;11.616;2023-04-06T02:24:04;4.00;72.30
4904;DHT22;2467;48.142;11.616;2023-04-06T02:24:36;4.00;73.10
4904;DHT22;2467;48.142;11.616;2023-04-06T02:25:09;4.00;72.50
4904;DHT22;2467;48.142;11.616;2023-04-06T02:25:41;4.00;72.50
4904;DHT22;2467;48.142;11.616;2023-04-06T02:26:13;4.00;72.40
4904;DHT22;2467;48.142;11.616;2023-04-06T02:26:46;4.00;72.40
4904;DHT22;2467;48.142;11.616;2023-04-06T02:27:18;4.00;72.40
4904;DHT22;2467;48.142;11.616;2023-04-06T02:27:50;4.00;72.50
4904;DHT22;2467;48.142;11.616;2023-04-06T02:28:23;4.00;72.70
4904;DHT22;2467;48.142;11.616;2023-04-06T02:28:55;3.90;72.80
4904;DHT22;2467;48.142;11.616;2023-04-06T02:29:27;3.90;73.10
4904;DHT22;2467;48.142;11.616;2023-04-06T02:29:58;3.90;73.20
4904;DHT22;2467;48.142;11.616;2023-04-06T02:30:32;3.90;73.20
4904;DHT22;2467;48.142;11.616;2023-04-06T02:31:04;3.90;73.30
4904;DHT22;2467;48.142;11.616;2023-04-06T02:31:36;3.90;73.90
4904;DHT22;2467;48.142;11.616;2023-04-06T02:32:09;3.90;73.10
4904;DHT22;2467;48.142;11.616;2023-04-06T02:32:41;3.90;73.00
4904;DHT22;2467;48.142;11.616;2023-04-06T02:33:13;4.00;73.10
4904;DHT22;2467;48.142;11.616;2023-04-06T02:33:46;4.00;73.10
4904;DHT22;2467;48.142;11.616;2023-04-06T02:34:18;4.00;73.00
4904;DHT22;2467;48.142;11.616;2023-04-06T02:34:50;4.00;73.00
4904;DHT22;2467;48.142;11.616;2023-04-06T02:35:25;4.00;73.10
4904;DHT22;2467;48.142;11.616;2023-04-06T02:35:57;4.00;73.00
4904;DHT22;2467;48.142;11.616;2023-04-06T02:36:29;4.00;73.00
4904;DHT22;2467;48.142;11.616;2023-04-06T02:37:02;3.90;72.90
4904;DHT22;2467;48.142;11.616;2023-04-06T02:37:34;3.90;73.00
4904;DHT22;2467;48.142;11.616;2023-04-06T02:38:07;3.90;73.00
4904;DHT22;2467;48.142;11.616;2023-04-06T02:38:40;3.90;73.20
4904;DHT22;2467;48.142;11.616;2023-04-06T02:39:12;3.90;73.20
4904;DHT22;2467;48.142;11.616;2023-04-06T02:39:44;3.90;73.30
4904;DHT22;2467;48.142;11.616;2023-04-06T02:40:17;3.90;73.40
4904;DHT22;2467;48.142;11.616;2023-04-06T02:40:49;3.80;73.40
4904;DHT22;2467;48.142;11.616;2023-04-06T02:41:21;3.90;73.70
4904;DHT22;2467;48.142;11.616;2023-04-06T02:41:54;3.90;73.70
4904;DHT22;2467;48.142;11.616;2023-04-06T02:42:27;3.90;73.60
4904;DHT22;2467;48.142;11.616;2023-04-06T02:42:59;3.80;73.60
4904;DHT22;2467;48.142;11.616;2023-04-06T02:43:32;3.90;73.80
4904;DHT22;2467;48.142;11.616;2023-04-06T02:44:06;3.80;73.70
4904;DHT22;2467;48.142;11.616;2023-04-06T02:44:38;3.80;73.80
4904;DHT22;2467;48.142;11.616;2023-04-06T02:45:10;3.80;74.10
4904;DHT22;2467;48.142;11.616;2023-04-06T02:45:43;3.80;74.40
4904;DHT22;2467;48.142;11.616;2023-04-06T02:46:15;3.80;74.70
4904;DHT22;2467;48.142;11.616;2023-04-06T02:46:47;3.80;75.00
4904;DHT22;2467;48.142;11.616;2023-04-06T02:47:20;3.80;75.10
4904;DHT22;2467;48.142;11.616;2023-04-06T02:47:52;3.80;75.30
4904;DHT22;2467;48.142;11.616;2023-04-06T02:48:24;3.80;75.30
4904;DHT22;2467;48.142;11.616;2023-04-06T02:48:56;3.80;75.40
4904;DHT22;2467;48.142;11.616;2023-04-06T02:49:31;3.80;75.40
4904;DHT22;2467;48.142;11.616;2023-04-06T02:50:04;3.80;75.40
4904;DHT22;2467;48.142;11.616;2023-04-06T02:50:37;3.90;75.40
4904;DHT22;2467;48.142;11.616;2023-04-06T02:51:09;3.80;75.00
4904;DHT22;2467;48.142;11.616;2023-04-06T02:51:41;3.80;75.00
4904;DHT22;2467;48.142;11.616;2023-04-06T02:52:13;3.80;74.90
4904;DHT22;2467;48.142;11.616;2023-04-06T02:52:46;3.80;74.70
4904;DHT22;2467;48.142;11.616;2023-04-06T02:53:19;3.80;74.60
4904;DHT22;2467;48.142;11.616;2023-04-06T02:53:51;3.80;74.60
4904;DHT22;2467;48.142;11.616;2023-04-06T02:54:24;3.80;74.70
4904;DHT22;2467;48.142;11.616;2023-04-06T02:54:56;3.80;74.80
4904;DHT22;2467;48.142;11.616;2023-04-06T02:55:28;3.80;74.80
4904;DHT22;2467;48.142;11.616;2023-04-06T02:56:01;3.80;75.40
4904;DHT22;2467;48.142;11.616;2023-04-06T02:56:33;3.90;74.80
4904;DHT22;2467;48.142;11.616;2023-04-06T02:57:05;3.90;74.60
4904;DHT22;2467;48.142;11.616;2023-04-06T02:57:38;3.90;74.50
4904;DHT22;2467;48.142;11.616;2023-04-06T02:58:10;3.90;74.40
4904;DHT22;2467;48.142;11.616;2023-04-06T02:58:42;3.90;74.20
4904;DHT22;2467;48.142;11.616;2023-04-06T02:59:14;4.00;74.10
4904;DHT22;2467;48.142;11.616;2023-04-06T02:59:46;3.90;73.90
4904;DHT22;2467;48.142;11.616;2023-04-06T03:00:19;3.90;73.90
4904;DHT22;2467;48.142;11.616;2023-04-06T03:00:52;3.90;74.00
4904;DHT22;2467;48.142;11.616;2023-04-06T03:01:24;3.90;74.10
4904;DHT22;2467;48.142;11.616;2023-04-06T03:01:56;3.80;74.10
4904;DHT22;2467;48.142;11.616;2023-04-06T03:02:28;3.80;74.20
4904;DHT22;2467;48.142;11.616;2023-04-06T03:03:01;3.80;74.40
4904;DHT22;2467;48.142;11.616;2023-04-06T03:03:33;3.80;74.70
4904;DHT22;2467;48.142;11.616;2023-04-06T03:04:05;3.80;75.00
4904;DHT22;2467;48.142;11.616;2023-04-06T03:04:38;3.80;75.20
4904;DHT22;2467;48.142;11.616;2023-04-06T03:05:10;3.80;75.20
4904;DHT22;2467;48.142;11.616;2023-04-06T03:05:42;3.80;75.20
4904;DHT22;2467;48.142;11.616;2023-04-06T03:06:14;3.80;75.20
4904;DHT22;2467;48.142;11.616;2023-04-06T03:06:46;3.80;75.20
4904;DHT22;2467;48.142;11.616;2023-04-06T03:07:18;3.80;75.20
4904;DHT22;2467;48.142;11.616;2023-04-06T03:07:51;3.80;75.20
4904;DHT22;2467;48.142;11.616;2023-04-06T03:08:24;3.80;75.10
4904;DHT22;2467;48.142;11.616;2023-04-06T03:08:56;3.80;75.00
4904;DHT22;2467;48.142;11.616;2023-04-06T03:09:29;3.80;75.00
4904;DHT22;2467;48.142;11.616;2023-04-06T03:10:01;4.00;75.10
4904;DHT22;2467;48.142;11.616;2023-04-06T03:10:33;3.90;75.00
4904;DHT22;2467;48.142;11.616;2023-04-06T03:11:06;3.90;75.00
4904;DHT22;2467;48.142;11.616;2023-04-06T03:11:38;3.90;74.90
4904;DHT22;2467;48.142;11.616;2023-04-06T03:12:10;3.90;75.00
4904;DHT22;2467;48.142;11.616;2023-04-06T03:12:43;3.90;75.10
4904;DHT22;2467;48.142;11.616;2023-04-06T03:13:15;3.80;75.20
4904;DHT22;2467;48.142;11.616;2023-04-06T03:13:47;3.80;75.40
4904;DHT22;2467;48.142;11.616;2023-04-06T03:14:20;3.80;75.50
4904;DHT22;2467;48.142;11.616;2023-04-06T03:14:53;3.80;75.50
4904;DHT22;2467;48.142;11.616;2023-04-06T03:15:25;3.80;75.50
4904;DHT22;2467;48.142;11.616;2023-04-06T03:15:58;3.70;75.40
4904;DHT22;2467;48.142;11.616;2023-04-06T03:16:30;3.70;75.40
4904;DHT22;2467;48.142;11.616;2023-04-06T03:17:01;3.70;75.40
4904;DHT22;2467;48.142;11.616;2023-04-06T03:17:34;3.70;75.40
4904;DHT22;2467;48.142;11.616;2023-04-06T03:18:06;3.80;75.60
4904;DHT22;2467;48.142;11.616;2023-04-06T03:18:38;3.80;75.40
4904;DHT22;2467;48.142;11.616;2023-04-06T03:19:11;3.80;75.40
4904;DHT22;2467;48.142;11.616;2023-04-06T03:19:43;3.80;75.30
4904;DHT22;2467;48.142;11.616;2023-04-06T03:20:15;3.80;75.20
4904;DHT22;2467;48.142;11.616;2023-04-06T03:20:48;3.80;75.20
4904;DHT22;2467;48.142;11.616;2023-04-06T03:21:20;3.70;75.10
4904;DHT22;2467;48.142;11.616;2023-04-06T03:21:52;3.70;75.20
4904;DHT22;2467;48.142;11.616;2023-04-06T03:22:25;3.70;75.20
4904;DHT22;2467;48.142;11.616;2023-04-06T03:22:56;3.70;75.30
4904;DHT22;2467;48.142;11.616;2023-04-06T03:23:30;3.70;75.40
4904;DHT22;2467;48.142;11.616;2023-04-06T03:24:03;3.70;75.40
4904;DHT22;2467;48.142;11.616;2023-04-06T03:24:35;3.70;75.40
4904;DHT22;2467;48.142;11.616;2023-04-06T03:25:07;3.70;76.00
4904;DHT22;2467;48.142;11.616;2023-04-06T03:25:40;3.80;75.50
4904;DHT22;2467;48.142;11.616;2023-04-06T03:26:12;3.70;75.60
4904;DHT22;2467;48.142;11.616;2023-04-06T03:26:44;3.80;75.70
4904;DHT22;2467;48.142;11.616;2023-04-06T03:27:17;3.80;75.70
4904;DHT22;2467;48.142;11.616;2023-04-06T03:27:49;3.80;75.90
4904;DHT22;2467;48.142;11.616;2023-04-06T03:28:21;3.80;76.10
4904;DHT22;2467;48.142;11.616;2023-04-06T03:28:54;3.80;76.40
4904;DHT22;2467;48.142;11.616;2023-04-06T03:29:25;3.80;76.50
4904;DHT22;2467;48.142;11.616;2023-04-06T03:29:58;3.70;76.60
4904;DHT22;2467;48.142;11.616;2023-04-06T03:30:31;3.70;77.00
4904;DHT22;2467;48.142;11.616;2023-04-06T03:31:03;3.70;77.40
4904;DHT22;2467;48.142;11.616;2023-04-06T03:31:35;3.70;77.80
4904;DHT22;2467;48.142;11.616;2023-04-06T03:32:08;3.60;78.00